createdAt,value
2023-04-17T00:01:30.898Z,100437.31
2023-04-17T00:06:34.503Z,100433.53
2023-04-17T00:11:39.361Z,100431.56
2023-04-17T00:16:42.260Z,100431.53
2023-04-17T00:21:45.573Z,100429.53
2023-04-17T00:26:50.245Z,100424.28
2023-04-17T00:31:53.525Z,100440.56
2023-04-17T00:36:56.894Z,100436.91
2023-04-17T00:42:01.879Z,100434.69
2023-04-17T00:47:05.171Z,100423.06
2023-04-17T00:52:08.864Z,100425.22
2023-04-17T00:57:13.951Z,100423.41
2023-04-17T01:02:17.677Z,100423.78
2023-04-17T01:07:21.207Z,100425.50
2023-04-17T01:12:26.671Z,100417.88
2023-04-17T01:17:30.058Z,100424.13
2023-04-17T01:22:33.370Z,100411.31
2023-04-17T01:27:38.012Z,100414.19
2023-04-17T01:32:41.630Z,100407.66
2023-04-17T01:37:44.928Z,100410.84
2023-04-17T01:42:49.661Z,100409.47
2023-04-17T01:47:52.957Z,100403.13
2023-04-17T01:52:56.236Z,100409.44
2023-04-17T01:58:00.804Z,100403.28
2023-04-17T02:03:04.221Z,100401.03
2023-04-17T02:08:07.739Z,100405.31
2023-04-17T02:13:12.571Z,100402.28
2023-04-17T02:18:15.766Z,100400.34
2023-04-17T02:23:19.038Z,100395.47
2023-04-17T02:28:23.660Z,100394.84
2023-04-17T02:33:27.363Z,100397.03
2023-04-17T02:38:30.658Z,100390.78
2023-04-17T02:43:35.285Z,100388.00
2023-04-17T02:48:38.606Z,100386.56
2023-04-17T02:53:41.852Z,100396.47
2023-04-17T02:58:46.508Z,100389.03
2023-04-17T03:03:49.977Z,100379.25
2023-04-17T03:08:53.319Z,100372.44
2023-04-17T03:13:58.107Z,100368.56
2023-04-17T03:19:03.202Z,100371.53
2023-04-17T03:24:07.028Z,100374.47
2023-04-17T03:29:11.843Z,100366.03
2023-04-17T03:34:15.558Z,100361.75
2023-04-17T03:39:18.834Z,100362.72
2023-04-17T03:44:23.501Z,100363.28
2023-04-17T03:49:26.807Z,100360.84
2023-04-17T03:54:30.060Z,100359.78
2023-04-17T03:59:34.792Z,100363.66
2023-04-17T04:04:38.209Z,100378.75
2023-04-17T04:09:41.627Z,100377.63
2023-04-17T04:14:46.332Z,100375.13
2023-04-17T04:19:49.567Z,100374.16
2023-04-17T04:24:53.944Z,100374.25
2023-04-17T04:30:00.154Z,100383.63
2023-04-17T04:35:03.397Z,100378.41
2023-04-17T04:40:11.065Z,100389.00
2023-04-17T04:45:15.829Z,100378.31
2023-04-17T04:50:20.133Z,100382.75
2023-04-17T04:55:23.528Z,100397.03
2023-04-17T05:00:28.241Z,100393.66
2023-04-17T05:05:31.509Z,100397.81
2023-04-17T05:10:34.728Z,100393.78
2023-04-17T05:15:39.492Z,100402.44
2023-04-17T05:20:42.865Z,100405.03
2023-04-17T05:25:46.335Z,100403.59
2023-04-17T05:30:51.051Z,100413.88
2023-04-17T05:35:56.287Z,100411.91
2023-04-17T05:41:00.002Z,100425.59
2023-04-17T05:46:04.788Z,100416.50
2023-04-17T05:51:08.128Z,100422.84
2023-04-17T05:56:11.356Z,100431.91
2023-04-17T06:01:17.655Z,100440.72
2023-04-17T06:06:21.158Z,100443.09
2023-04-17T06:11:24.545Z,100442.41
2023-04-17T06:16:29.217Z,100451.31
2023-04-17T06:21:33.324Z,100464.72
2023-04-17T06:26:36.540Z,100457.53
2023-04-17T06:31:41.355Z,100467.59
2023-04-17T06:36:44.356Z,100464.47
2023-04-17T06:41:48.449Z,100470.66
2023-04-17T06:46:54.699Z,100473.19
2023-04-17T06:51:58.044Z,100475.69
2023-04-17T06:57:01.313Z,100478.97
2023-04-17T07:02:06.245Z,100484.53
2023-04-17T07:07:09.553Z,100485.69
2023-04-17T07:12:12.795Z,100484.47
2023-04-17T07:17:17.472Z,100487.91
2023-04-17T07:22:21.043Z,100490.78
2023-04-17T07:27:24.403Z,100489.44
2023-04-17T07:32:29.806Z,100485.88
2023-04-17T07:37:33.095Z,100484.41
2023-04-17T07:42:36.597Z,100481.56
2023-04-17T07:47:41.216Z,100478.03
2023-04-17T07:52:44.424Z,100481.44
2023-04-17T07:57:47.604Z,100475.88
2023-04-17T08:02:52.706Z,100474.28
2023-04-17T08:07:56.125Z,100468.19
2023-04-17T08:12:59.587Z,100470.38
2023-04-17T08:18:05.037Z,100465.94
2023-04-17T08:23:08.345Z,100463.47
2023-04-17T08:28:11.534Z,100458.03
2023-04-17T08:33:17.334Z,100461.88
2023-04-17T08:38:20.560Z,100449.22
2023-04-17T08:43:26.395Z,100444.06
2023-04-17T08:48:32.510Z,100441.38
2023-04-17T08:53:35.848Z,100450.50
2023-04-17T08:58:39.169Z,100436.53
2023-04-17T09:03:45.892Z,100434.97
2023-04-17T09:09:00.555Z,100427.72
2023-04-17T09:14:03.861Z,100428.34
2023-04-17T09:19:09.088Z,100432.75
2023-04-17T09:24:13.179Z,100444.78
2023-04-17T09:29:16.952Z,100435.59
2023-04-17T09:34:22.185Z,100432.59
2023-04-17T09:39:25.442Z,100431.25
2023-04-17T09:44:30.303Z,100427.97
2023-04-17T09:49:42.440Z,100424.66
2023-04-17T09:54:46.543Z,100407.94
2023-04-17T09:59:50.142Z,100416.94
2023-04-17T10:04:55.996Z,100405.31
2023-04-17T10:10:01.261Z,100406.06
2023-04-17T10:15:07.460Z,100400.38
2023-04-17T10:20:38.275Z,100389.97
2023-04-17T10:25:41.558Z,100392.94
2023-04-17T10:30:54.634Z,100388.03
2023-04-17T10:36:00.009Z,100377.69
2023-04-17T10:41:05.552Z,100374.22
2023-04-17T10:46:11.772Z,100368.47
2023-04-17T10:51:44.787Z,100365.06
2023-04-17T10:56:48.935Z,100369.78
2023-04-17T11:02:04.660Z,100355.88
2023-04-17T11:07:09.724Z,100360.38
2023-04-17T11:12:13.655Z,100347.19
2023-04-17T11:17:18.198Z,100355.38
2023-04-17T11:22:23.379Z,100340.44
2023-04-17T11:27:26.697Z,100341.09
2023-04-17T11:32:37.592Z,100325.69
2023-04-17T11:38:13.342Z,100322.88
2023-04-17T11:43:17.747Z,100316.44
2023-04-17T11:48:23.628Z,100314.44
2023-04-17T11:53:29.153Z,100291.63
2023-04-17T11:58:32.444Z,100285.91
2023-04-17T12:03:37.183Z,100275.78
2023-04-17T12:08:47.352Z,100255.94
2023-04-17T12:13:50.617Z,100255.94
2023-04-17T12:18:54.034Z,100245.16
2023-04-17T12:23:58.676Z,100242.09
2023-04-17T12:29:01.930Z,100229.09
2023-04-17T12:34:05.290Z,100219.38
2023-04-17T12:39:09.957Z,100209.81
2023-04-17T12:44:13.277Z,100215.09
2023-04-17T12:49:16.641Z,100197.63
2023-04-17T12:54:21.251Z,100204.91
2023-04-17T12:59:24.524Z,100191.41
2023-04-17T13:04:27.841Z,100190.53
2023-04-17T13:09:32.573Z,100175.94
2023-04-17T13:14:35.863Z,100179.84
2023-04-17T13:19:40.272Z,100180.66
2023-04-17T13:24:44.992Z,100161.94
2023-04-17T13:29:48.210Z,100153.22
2023-04-17T13:34:51.482Z,100153.19
2023-04-17T13:39:56.128Z,100146.78
2023-04-17T13:44:59.344Z,100138.16
2023-04-17T13:50:02.753Z,100130.03
2023-04-17T13:55:12.033Z,100119.06
2023-04-17T14:00:16.363Z,100109.91
2023-04-17T14:05:19.657Z,100105.34
2023-04-17T14:10:24.425Z,100099.38
2023-04-17T14:15:27.715Z,100092.75
2023-04-17T14:20:31.002Z,100092.59
2023-04-17T14:25:35.832Z,100090.09
2023-04-17T14:30:39.070Z,100078.22
2023-04-17T14:35:42.359Z,100071.44
2023-04-17T14:40:47.118Z,100061.50
2023-04-17T14:45:51.544Z,100049.50
2023-04-17T14:50:54.783Z,100048.53
2023-04-17T14:56:00.560Z,100042.44
2023-04-17T15:01:03.965Z,100033.47
2023-04-17T15:06:07.446Z,100034.22
2023-04-17T15:11:12.151Z,100023.69
2023-04-17T15:16:16.197Z,100016.44
2023-04-17T15:21:19.591Z,100014.66
2023-04-17T15:26:24.353Z,100005.75
2023-04-17T15:31:27.621Z,100008.59
2023-04-17T15:36:32.515Z,99997.50
2023-04-17T15:41:40.498Z,99988.47
2023-04-17T15:46:43.847Z,99985.69
2023-04-17T15:51:47.197Z,99980.59
2023-04-17T15:56:51.807Z,99970.75
2023-04-17T16:01:55.109Z,99969.66
2023-04-17T16:06:58.412Z,99967.09
2023-04-17T16:12:05.713Z,99959.06
2023-04-17T16:17:08.983Z,99950.78
2023-04-17T16:22:12.249Z,99945.09
2023-04-17T16:27:16.886Z,99942.56
2023-04-17T16:32:20.926Z,99939.47
2023-04-17T16:37:24.180Z,99937.41
2023-04-17T16:42:28.783Z,99927.88
2023-04-17T16:47:33.082Z,99924.25
2023-04-17T16:52:36.576Z,99924.47
2023-04-17T16:57:43.938Z,99920.25
2023-04-17T17:02:47.292Z,99905.81
2023-04-17T17:07:50.575Z,99902.09
2023-04-17T17:12:55.502Z,99903.78
2023-04-17T17:17:58.895Z,99902.75
2023-04-17T17:23:02.233Z,99899.09
2023-04-17T17:28:06.979Z,99897.78
2023-04-17T17:33:10.318Z,99891.94
2023-04-17T17:38:13.609Z,99884.97
2023-04-17T17:43:18.279Z,99889.38
2023-04-17T17:48:21.536Z,99888.97
2023-04-17T17:53:26.932Z,99892.50
2023-04-17T17:58:31.892Z,99887.81
2023-04-17T18:03:35.543Z,99886.03
2023-04-17T18:08:39.126Z,99878.16
2023-04-17T18:13:43.765Z,99884.28
2023-04-17T18:18:47.021Z,99883.34
2023-04-17T18:23:50.280Z,99889.56
2023-04-17T18:28:54.891Z,99892.06
2023-04-17T18:34:02.281Z,99889.22
2023-04-17T18:39:05.708Z,99900.28
2023-04-17T18:44:10.320Z,99892.25
2023-04-17T18:49:13.526Z,99903.09
2023-04-17T18:54:17.087Z,99904.72
2023-04-17T18:59:21.698Z,99905.50
2023-04-17T19:04:24.934Z,99898.44
2023-04-17T19:09:28.208Z,99907.44
2023-04-17T19:14:33.604Z,99904.91
2023-04-17T19:19:36.804Z,99909.00
2023-04-17T19:24:40.076Z,99912.72
2023-04-17T19:29:44.754Z,99910.47
2023-04-17T19:34:47.971Z,99917.13
2023-04-17T19:39:52.813Z,99918.16
2023-04-17T19:45:00.782Z,99924.53
2023-04-17T19:50:04.218Z,99934.97
2023-04-17T19:55:09.449Z,99936.06
2023-04-17T20:00:15.276Z,99933.09
2023-04-17T20:05:18.740Z,99936.84
2023-04-17T20:10:22.211Z,99941.25
2023-04-17T20:15:26.924Z,99947.88
2023-04-17T20:20:30.225Z,99955.75
2023-04-17T20:25:33.480Z,99950.38
2023-04-17T20:30:38.226Z,99955.88
2023-04-17T20:35:42.459Z,99955.59
2023-04-17T20:40:45.812Z,99963.34
2023-04-17T20:45:51.034Z,99960.13
2023-04-17T20:50:54.228Z,99964.47
2023-04-17T20:55:57.989Z,99972.47
2023-04-17T21:01:02.686Z,99975.16
2023-04-17T21:06:06.354Z,99977.94
2023-04-17T21:11:09.534Z,99972.41
2023-04-17T21:16:15.632Z,99969.59
2023-04-17T21:21:18.936Z,99965.31
2023-04-17T21:26:22.156Z,99962.38
2023-04-17T21:31:26.932Z,99963.94
2023-04-17T21:36:30.224Z,99964.09
2023-04-17T21:41:33.485Z,99970.00
2023-04-17T21:46:38.215Z,99963.41
2023-04-17T21:51:41.620Z,99959.31
2023-04-17T21:56:44.892Z,99956.06
2023-04-17T22:01:49.577Z,99954.31
2023-04-17T22:06:54.411Z,99959.78
2023-04-17T22:11:58.891Z,99958.44
2023-04-17T22:17:03.673Z,99954.78
2023-04-17T22:22:06.984Z,99952.03
2023-04-17T22:27:10.293Z,99951.66
2023-04-17T22:32:14.951Z,99951.03
2023-04-17T22:37:18.716Z,99950.28
2023-04-17T22:42:22.017Z,99950.22
2023-04-17T22:47:26.741Z,99944.16
2023-04-17T22:52:30.062Z,99939.28
2023-04-17T22:57:33.300Z,99945.72
2023-04-17T23:02:38.177Z,99943.53
2023-04-17T23:07:41.446Z,99944.00
2023-04-17T23:12:44.813Z,99953.22
2023-04-17T23:17:49.504Z,99953.47
2023-04-17T23:22:53.128Z,99944.72
2023-04-17T23:27:56.404Z,99941.09
2023-04-17T23:33:01.151Z,99935.38
2023-04-17T23:38:04.204Z,99938.81
2023-04-17T23:43:08.079Z,99939.28
2023-04-17T23:48:12.716Z,99938.72
2023-04-17T23:53:15.994Z,99934.72
2023-04-17T23:58:19.190Z,99928.41
